sensor_id;sensor_type;location;lat;lon;timestamp;P1;durP1;ratioP1;P2;durP2;ratioP2
28772;SDS011;15925;51.222;5.678;2023-04-06T00:02:08;7.97;;;3.50;;
28772;SDS011;15925;51.222;5.678;2023-04-06T00:04:34;8.32;;;4.18;;
28772;SDS011;15925;51.222;5.678;2023-04-06T00:07:00;7.77;;;4.40;;
28772;SDS011;15925;51.222;5.678;2023-04-06T00:09:26;12.57;;;4.93;;
28772;SDS011;15925;51.222;5.678;2023-04-06T00:11:52;11.00;;;4.35;;
28772;SDS011;15925;51.222;5.678;2023-04-06T00:14:17;15.23;;;4.47;;
28772;SDS011;15925;51.222;5.678;2023-04-06T00:16:43;12.15;;;4.28;;
28772;SDS011;15925;51.222;5.678;2023-04-06T00:19:09;7.43;;;5.20;;
28772;SDS011;15925;51.222;5.678;2023-04-06T00:21:35;20.93;;;3.60;;
28772;SDS011;15925;51.222;5.678;2023-04-06T00:24:01;8.63;;;4.50;;
28772;SDS011;15925;51.222;5.678;2023-04-06T00:26:29;11.07;;;4.32;;
28772;SDS011;15925;51.222;5.678;2023-04-06T00:28:55;10.65;;;4.38;;
28772;SDS011;15925;51.222;5.678;2023-04-06T00:31:21;9.18;;;3.55;;
28772;SDS011;15925;51.222;5.678;2023-04-06T00:33:48;12.02;;;4.05;;
28772;SDS011;15925;51.222;5.678;2023-04-06T00:36:14;11.10;;;5.68;;
28772;SDS011;15925;51.222;5.678;2023-04-06T00:38:40;14.57;;;7.30;;
28772;SDS011;15925;51.222;5.678;2023-04-06T00:41:05;14.83;;;5.00;;
28772;SDS011;15925;51.222;5.678;2023-04-06T00:43:31;12.93;;;5.47;;
28772;SDS011;15925;51.222;5.678;2023-04-06T00:45:57;8.02;;;4.95;;
28772;SDS011;15925;51.222;5.678;2023-04-06T00:48:23;7.05;;;3.45;;
28772;SDS011;15925;51.222;5.678;2023-04-06T00:50:49;10.97;;;3.60;;
28772;SDS011;15925;51.222;5.678;2023-04-06T00:53:15;7.85;;;4.30;;
28772;SDS011;15925;51.222;5.678;2023-04-06T00:55:41;11.88;;;4.00;;
28772;SDS011;15925;51.222;5.678;2023-04-06T00:58:07;11.95;;;5.75;;
28772;SDS011;15925;51.222;5.678;2023-04-06T01:00:43;13.10;;;4.75;;
28772;SDS011;15925;51.222;5.678;2023-04-06T01:03:14;18.90;;;5.50;;
28772;SDS011;15925;51.222;5.678;2023-04-06T01:05:42;9.35;;;4.72;;
28772;SDS011;15925;51.222;5.678;2023-04-06T01:08:17;14.48;;;6.32;;
28772;SDS011;15925;51.222;5.678;2023-04-06T01:10:43;11.02;;;5.38;;
28772;SDS011;15925;51.222;5.678;2023-04-06T01:13:21;17.58;;;5.68;;
28772;SDS011;15925;51.222;5.678;2023-04-06T01:15:51;9.40;;;4.55;;
28772;SDS011;15925;51.222;5.678;2023-04-06T01:18:27;17.00;;;5.43;;
28772;SDS011;15925;51.222;5.678;2023-04-06T01:21:11;18.17;;;5.97;;
28772;SDS011;15925;51.222;5.678;2023-04-06T01:23:46;20.73;;;7.15;;
28772;SDS011;15925;51.222;5.678;2023-04-06T01:26:18;25.98;;;8.13;;
28772;SDS011;15925;51.222;5.678;2023-04-06T01:28:44;20.17;;;6.70;;
28772;SDS011;15925;51.222;5.678;2023-04-06T01:31:23;17.35;;;6.57;;
28772;SDS011;15925;51.222;5.678;2023-04-06T01:33:51;14.77;;;5.95;;
28772;SDS011;15925;51.222;5.678;2023-04-06T01:36:20;15.23;;;6.60;;
28772;SDS011;15925;51.222;5.678;2023-04-06T01:38:53;14.13;;;6.50;;
28772;SDS011;15925;51.222;5.678;2023-04-06T01:41:25;8.48;;;3.35;;
28772;SDS011;15925;51.222;5.678;2023-04-06T01:46:22;9.70;;;4.97;;
28772;SDS011;15925;51.222;5.678;2023-04-06T01:48:49;10.50;;;4.18;;
28772;SDS011;15925;51.222;5.678;2023-04-06T01:51:26;16.40;;;4.82;;
28772;SDS011;15925;51.222;5.678;2023-04-06T01:53:59;11.65;;;5.13;;
28772;SDS011;15925;51.222;5.678;2023-04-06T01:56:43;17.17;;;5.38;;
28772;SDS011;15925;51.222;5.678;2023-04-06T01:59:24;12.30;;;6.32;;
28772;SDS011;15925;51.222;5.678;2023-04-06T02:01:50;10.07;;;5.88;;
28772;SDS011;15925;51.222;5.678;2023-04-06T02:04:16;14.38;;;5.13;;
28772;SDS011;15925;51.222;5.678;2023-04-06T02:06:45;14.95;;;6.15;;
28772;SDS011;15925;51.222;5.678;2023-04-06T02:09:14;11.38;;;5.70;;
28772;SDS011;15925;51.222;5.678;2023-04-06T02:11:40;15.25;;;6.28;;
28772;SDS011;15925;51.222;5.678;2023-04-06T02:14:06;18.20;;;6.87;;
28772;SDS011;15925;51.222;5.678;2023-04-06T02:16:37;15.05;;;5.65;;
28772;SDS011;15925;51.222;5.678;2023-04-06T02:19:03;31.15;;;5.30;;
28772;SDS011;15925;51.222;5.678;2023-04-06T02:21:29;10.98;;;5.47;;
28772;SDS011;15925;51.222;5.678;2023-04-06T02:23:55;21.60;;;4.47;;
28772;SDS011;15925;51.222;5.678;2023-04-06T02:26:21;15.85;;;5.97;;
28772;SDS011;15925;51.222;5.678;2023-04-06T02:28:46;16.65;;;5.82;;
28772;SDS011;15925;51.222;5.678;2023-04-06T02:31:12;9.02;;;5.55;;
28772;SDS011;15925;51.222;5.678;2023-04-06T02:33:41;25.35;;;5.63;;
28772;SDS011;15925;51.222;5.678;2023-04-06T02:36:08;8.90;;;5.05;;
28772;SDS011;15925;51.222;5.678;2023-04-06T02:38:34;10.57;;;5.32;;
28772;SDS011;15925;51.222;5.678;2023-04-06T02:41:01;19.77;;;7.05;;
28772;SDS011;15925;51.222;5.678;2023-04-06T02:46:01;15.38;;;6.25;;
28772;SDS011;15925;51.222;5.678;2023-04-06T02:48:30;14.73;;;6.38;;
28772;SDS011;15925;51.222;5.678;2023-04-06T02:50:56;19.75;;;5.78;;
28772;SDS011;15925;51.222;5.678;2023-04-06T02:53:22;19.65;;;6.03;;
28772;SDS011;15925;51.222;5.678;2023-04-06T02:55:48;17.55;;;7.68;;
28772;SDS011;15925;51.222;5.678;2023-04-06T02:58:14;12.43;;;5.85;;
28772;SDS011;15925;51.222;5.678;2023-04-06T03:00:47;20.38;;;6.57;;
28772;SDS011;15925;51.222;5.678;2023-04-06T03:03:13;11.45;;;6.28;;
28772;SDS011;15925;51.222;5.678;2023-04-06T03:05:41;13.80;;;7.63;;
28772;SDS011;15925;51.222;5.678;2023-04-06T03:10:39;11.98;;;5.22;;
28772;SDS011;15925;51.222;5.678;2023-04-06T03:13:06;13.93;;;5.95;;
28772;SDS011;15925;51.222;5.678;2023-04-06T03:15:50;10.98;;;4.55;;
28772;SDS011;15925;51.222;5.678;2023-04-06T03:18:20;12.98;;;7.00;;
28772;SDS011;15925;51.222;5.678;2023-04-06T03:20:52;12.40;;;6.38;;
28772;SDS011;15925;51.222;5.678;2023-04-06T03:23:25;17.13;;;6.93;;
28772;SDS011;15925;51.222;5.678;2023-04-06T03:25:55;23.50;;;6.38;;
28772;SDS011;15925;51.222;5.678;2023-04-06T03:28:22;28.35;;;6.57;;
28772;SDS011;15925;51.222;5.678;2023-04-06T03:30:54;16.38;;;5.82;;
28772;SDS011;15925;51.222;5.678;2023-04-06T03:33:36;20.75;;;6.20;;
28772;SDS011;15925;51.222;5.678;2023-04-06T03:36:02;15.30;;;5.32;;
28772;SDS011;15925;51.222;5.678;2023-04-06T03:38:31;12.30;;;6.25;;
28772;SDS011;15925;51.222;5.678;2023-04-06T03:40:57;18.15;;;7.75;;
28772;SDS011;15925;51.222;5.678;2023-04-06T03:43:25;15.52;;;6.90;;
28772;SDS011;15925;51.222;5.678;2023-04-06T03:45:51;29.05;;;7.43;;
28772;SDS011;15925;51.222;5.678;2023-04-06T03:48:18;20.52;;;5.75;;
28772;SDS011;15925;51.222;5.678;2023-04-06T03:50:44;14.73;;;5.63;;
28772;SDS011;15925;51.222;5.678;2023-04-06T03:53:10;13.40;;;5.70;;
28772;SDS011;15925;51.222;5.678;2023-04-06T03:55:36;22.67;;;8.27;;
28772;SDS011;15925;51.222;5.678;2023-04-06T03:58:02;10.07;;;6.65;;
28772;SDS011;15925;51.222;5.678;2023-04-06T04:00:27;12.60;;;5.90;;
28772;SDS011;15925;51.222;5.678;2023-04-06T04:02:54;16.48;;;6.55;;
28772;SDS011;15925;51.222;5.678;2023-04-06T04:05:20;11.98;;;6.22;;
28772;SDS011;15925;51.222;5.678;2023-04-06T04:07:53;18.25;;;7.45;;
28772;SDS011;15925;51.222;5.678;2023-04-06T04:10:23;19.10;;;7.57;;
28772;SDS011;15925;51.222;5.678;2023-04-06T04:12:49;17.27;;;6.43;;
28772;SDS011;15925;51.222;5.678;2023-04-06T04:15:15;24.67;;;6.93;;
28772;SDS011;15925;51.222;5.678;2023-04-06T04:17:41;14.13;;;6.70;;
28772;SDS011;15925;51.222;5.678;2023-04-06T04:20:11;17.70;;;7.05;;
28772;SDS011;15925;51.222;5.678;2023-04-06T04:22:38;16.45;;;7.43;;
28772;SDS011;15925;51.222;5.678;2023-04-06T04:25:05;16.25;;;5.38;;
28772;SDS011;15925;51.222;5.678;2023-04-06T04:27:33;13.73;;;6.18;;
28772;SDS011;15925;51.222;5.678;2023-04-06T04:30:01;14.93;;;6.57;;
28772;SDS011;15925;51.222;5.678;2023-04-06T04:32:26;13.32;;;5.57;;
28772;SDS011;15925;51.222;5.678;2023-04-06T04:34:54;15.27;;;5.93;;
28772;SDS011;15925;51.222;5.678;2023-04-06T04:37:32;20.05;;;7.00;;
28772;SDS011;15925;51.222;5.678;2023-04-06T04:39:59;17.80;;;6.63;;
28772;SDS011;15925;51.222;5.678;2023-04-06T04:42:28;24.92;;;7.93;;
28772;SDS011;15925;51.222;5.678;2023-04-06T04:44:57;11.63;;;5.40;;
28772;SDS011;15925;51.222;5.678;2023-04-06T04:47:37;18.42;;;7.82;;
28772;SDS011;15925;51.222;5.678;2023-04-06T04:50:05;19.67;;;7.57;;
28772;SDS011;15925;51.222;5.678;2023-04-06T04:52:31;35.75;;;7.72;;
28772;SDS011;15925;51.222;5.678;2023-04-06T04:55:12;13.80;;;6.38;;
28772;SDS011;15925;51.222;5.678;2023-04-06T04:57:39;17.58;;;6.85;;
28772;SDS011;15925;51.222;5.678;2023-04-06T05:00:05;12.37;;;5.63;;
28772;SDS011;15925;51.222;5.678;2023-04-06T05:02:34;15.45;;;7.22;;
28772;SDS011;15925;51.222;5.678;2023-04-06T05:05:16;14.13;;;6.70;;
28772;SDS011;15925;51.222;5.678;2023-04-06T05:07:42;17.20;;;6.43;;
28772;SDS011;15925;51.222;5.678;2023-04-06T05:10:15;18.60;;;8.05;;
28772;SDS011;15925;51.222;5.678;2023-04-06T05:12:52;12.98;;;6.43;;
28772;SDS011;15925;51.222;5.678;2023-04-06T05:15:18;14.63;;;6.47;;
28772;SDS011;15925;51.222;5.678;2023-04-06T05:17:45;15.07;;;6.53;;
28772;SDS011;15925;51.222;5.678;2023-04-06T05:20:16;14.43;;;6.25;;
28772;SDS011;15925;51.222;5.678;2023-04-06T05:22:47;25.27;;;6.85;;
28772;SDS011;15925;51.222;5.678;2023-04-06T05:25:14;14.50;;;4.88;;
28772;SDS011;15925;51.222;5.678;2023-04-06T05:27:41;23.05;;;6.07;;
28772;SDS011;15925;51.222;5.678;2023-04-06T05:30:20;15.02;;;5.70;;
28772;SDS011;15925;51.222;5.678;2023-04-06T05:32:47;24.65;;;5.97;;
28772;SDS011;15925;51.222;5.678;2023-04-06T05:35:14;16.17;;;6.38;;
28772;SDS011;15925;51.222;5.678;2023-04-06T05:37:43;17.80;;;6.22;;
28772;SDS011;15925;51.222;5.678;2023-04-06T05:40:09;16.30;;;5.85;;
28772;SDS011;15925;51.222;5.678;2023-04-06T05:42:36;16.55;;;5.38;;
28772;SDS011;15925;51.222;5.678;2023-04-06T05:45:05;16.40;;;6.65;;
28772;SDS011;15925;51.222;5.678;2023-04-06T05:47:31;17.38;;;6.82;;
28772;SDS011;15925;51.222;5.678;2023-04-06T05:50:05;24.40;;;6.97;;
28772;SDS011;15925;51.222;5.678;2023-04-06T05:52:35;22.38;;;6.70;;
28772;SDS011;15925;51.222;5.678;2023-04-06T05:55:01;25.60;;;6.50;;
28772;SDS011;15925;51.222;5.678;2023-04-06T05:57:29;19.35;;;6.60;;
28772;SDS011;15925;51.222;5.678;2023-04-06T05:59:56;14.38;;;5.45;;
28772;SDS011;15925;51.222;5.678;2023-04-06T06:02:26;14.90;;;6.07;;
28772;SDS011;15925;51.222;5.678;2023-04-06T06:04:52;20.85;;;7.88;;
28772;SDS011;15925;51.222;5.678;2023-04-06T06:07:18;14.25;;;5.93;;
28772;SDS011;15925;51.222;5.678;2023-04-06T06:09:52;13.20;;;6.57;;
28772;SDS011;15925;51.222;5.678;2023-04-06T06:12:26;15.32;;;6.10;;
28772;SDS011;15925;51.222;5.678;2023-04-06T06:14:53;13.38;;;6.07;;
28772;SDS011;15925;51.222;5.678;2023-04-06T06:17:22;17.83;;;8.50;;
28772;SDS011;15925;51.222;5.678;2023-04-06T06:19:48;13.73;;;6.05;;
28772;SDS011;15925;51.222;5.678;2023-04-06T06:22:14;20.17;;;6.85;;
28772;SDS011;15925;51.222;5.678;2023-04-06T06:24:44;16.35;;;6.97;;
28772;SDS011;15925;51.222;5.678;2023-04-06T06:27:10;22.63;;;6.32;;
28772;SDS011;15925;51.222;5.678;2023-04-06T06:29:37;23.83;;;6.70;;
28772;SDS011;15925;51.222;5.678;2023-04-06T06:32:03;21.80;;;7.43;;
28772;SDS011;15925;51.222;5.678;2023-04-06T06:34:29;19.05;;;6.22;;
28772;SDS011;15925;51.222;5.678;2023-04-06T06:36:58;17.20;;;5.72;;
28772;SDS011;15925;51.222;5.678;2023-04-06T06:39:24;10.30;;;4.83;;
28772;SDS011;15925;51.222;5.678;2023-04-06T06:41:50;11.98;;;5.07;;
28772;SDS011;15925;51.222;5.678;2023-04-06T06:44:20;12.30;;;6.13;;
28772;SDS011;15925;51.222;5.678;2023-04-06T06:46:47;12.40;;;6.15;;
28772;SDS011;15925;51.222;5.678;2023-04-06T06:49:13;17.48;;;5.70;;
28772;SDS011;15925;51.222;5.678;2023-04-06T06:51:39;11.93;;;5.68;;
28772;SDS011;15925;51.222;5.678;2023-04-06T06:56:31;19.10;;;7.82;;
28772;SDS011;15925;51.222;5.678;2023-04-06T06:58:57;25.27;;;6.38;;
28772;SDS011;15925;51.222;5.678;2023-04-06T07:01:23;14.10;;;5.10;;
28772;SDS011;15925;51.222;5.678;2023-04-06T07:03:49;13.18;;;5.55;;
28772;SDS011;15925;51.222;5.678;2023-04-06T07:06:15;10.87;;;5.40;;
28772;SDS011;15925;51.222;5.678;2023-04-06T07:08:41;14.23;;;6.33;;
28772;SDS011;15925;51.222;5.678;2023-04-06T07:11:07;12.25;;;5.10;;
28772;SDS011;15925;51.222;5.678;2023-04-06T07:13:33;12.85;;;6.20;;
28772;SDS011;15925;51.222;5.678;2023-04-06T07:16:00;20.77;;;6.25;;
28772;SDS011;15925;51.222;5.678;2023-04-06T07:18:27;15.95;;;7.05;;
28772;SDS011;15925;51.222;5.678;2023-04-06T07:20:53;15.27;;;6.38;;
28772;SDS011;15925;51.222;5.678;2023-04-06T07:23:19;21.73;;;6.23;;
28772;SDS011;15925;51.222;5.678;2023-04-06T07:25:45;25.45;;;6.47;;
28772;SDS011;15925;51.222;5.678;2023-04-06T07:28:11;19.98;;;6.43;;
28772;SDS011;15925;51.222;5.678;2023-04-06T07:30:38;14.15;;;6.53;;
28772;SDS011;15925;51.222;5.678;2023-04-06T07:33:05;20.60;;;7.38;;
28772;SDS011;15925;51.222;5.678;2023-04-06T07:35:32;19.10;;;5.95;;
28772;SDS011;15925;51.222;5.678;2023-04-06T07:37:59;15.18;;;5.07;;
28772;SDS011;15925;51.222;5.678;2023-04-06T07:40:25;13.00;;;6.82;;
28772;SDS011;15925;51.222;5.678;2023-04-06T07:42:52;13.75;;;5.75;;
28772;SDS011;15925;51.222;5.678;2023-04-06T07:45:18;10.70;;;5.13;;
28772;SDS011;15925;51.222;5.678;2023-04-06T07:50:11;10.98;;;4.57;;
28772;SDS011;15925;51.222;5.678;2023-04-06T07:52:38;22.25;;;6.15;;
28772;SDS011;15925;51.222;5.678;2023-04-06T07:55:05;23.30;;;6.35;;
28772;SDS011;15925;51.222;5.678;2023-04-06T07:57:31;20.20;;;5.50;;
28772;SDS011;15925;51.222;5.678;2023-04-06T07:59:56;10.10;;;5.03;;
28772;SDS011;15925;51.222;5.678;2023-04-06T08:02:22;23.40;;;5.93;;
28772;SDS011;15925;51.222;5.678;2023-04-06T08:04:48;14.63;;;5.93;;
28772;SDS011;15925;51.222;5.678;2023-04-06T08:07:14;18.27;;;5.93;;
28772;SDS011;15925;51.222;5.678;2023-04-06T08:09:40;16.73;;;5.87;;
28772;SDS011;15925;51.222;5.678;2023-04-06T08:12:06;15.07;;;7.20;;
28772;SDS011;15925;51.222;5.678;2023-04-06T08:14:32;12.20;;;5.00;;
28772;SDS011;15925;51.222;5.678;2023-04-06T08:16:57;16.80;;;5.47;;
28772;SDS011;15925;51.222;5.678;2023-04-06T08:19:23;13.63;;;5.07;;
28772;SDS011;15925;51.222;5.678;2023-04-06T08:21:49;13.87;;;4.77;;
28772;SDS011;15925;51.222;5.678;2023-04-06T08:24:16;11.63;;;5.07;;
28772;SDS011;15925;51.222;5.678;2023-04-06T08:26:42;10.40;;;4.67;;
28772;SDS011;15925;51.222;5.678;2023-04-06T08:29:08;14.27;;;6.28;;
28772;SDS011;15925;51.222;5.678;2023-04-06T08:31:34;23.42;;;6.88;;
28772;SDS011;15925;51.222;5.678;2023-04-06T08:34:00;16.90;;;5.22;;
28772;SDS011;15925;51.222;5.678;2023-04-06T08:38:52;21.98;;;6.13;;
28772;SDS011;15925;51.222;5.678;2023-04-06T08:41:19;14.52;;;6.10;;
28772;SDS011;15925;51.222;5.678;2023-04-06T08:46:12;32.47;;;6.18;;
28772;SDS011;15925;51.222;5.678;2023-04-06T08:48:38;12.30;;;5.60;;
28772;SDS011;15925;51.222;5.678;2023-04-06T08:51:06;11.48;;;5.65;;
28772;SDS011;15925;51.222;5.678;2023-04-06T08:53:34;14.60;;;6.78;;
28772;SDS011;15925;51.222;5.678;2023-04-06T08:55:59;17.63;;;5.85;;
28772;SDS011;15925;51.222;5.678;2023-04-06T08:58:28;17.58;;;6.25;;
28772;SDS011;15925;51.222;5.678;2023-04-06T09:00:57;16.30;;;5.80;;
28772;SDS011;15925;51.222;5.678;2023-04-06T09:03:24;16.08;;;6.25;;
28772;SDS011;15925;51.222;5.678;2023-04-06T09:05:53;14.00;;;4.75;;
28772;SDS011;15925;51.222;5.678;2023-04-06T09:08:19;10.50;;;4.75;;
28772;SDS011;15925;51.222;5.678;2023-04-06T09:10:45;16.48;;;6.53;;
28772;SDS011;15925;51.222;5.678;2023-04-06T09:13:11;19.23;;;6.18;;
28772;SDS011;15925;51.222;5.678;2023-04-06T09:15:37;16.17;;;6.57;;
28772;SDS011;15925;51.222;5.678;2023-04-06T09:18:03;19.55;;;4.90;;
28772;SDS011;15925;51.222;5.678;2023-04-06T09:20:29;16.33;;;5.20;;
28772;SDS011;15925;51.222;5.678;2023-04-06T09:22:55;20.20;;;5.60;;
28772;SDS011;15925;51.222;5.678;2023-04-06T09:25:22;23.08;;;6.43;;
28772;SDS011;15925;51.222;5.678;2023-04-06T09:27:48;29.13;;;5.80;;
28772;SDS011;15925;51.222;5.678;2023-04-06T09:30:24;13.23;;;4.70;;
28772;SDS011;15925;51.222;5.678;2023-04-06T09:32:55;14.43;;;5.72;;
28772;SDS011;15925;51.222;5.678;2023-04-06T09:35:22;16.58;;;5.03;;
28772;SDS011;15925;51.222;5.678;2023-04-06T09:37:49;15.50;;;4.43;;
28772;SDS011;15925;51.222;5.678;2023-04-06T09:40:20;11.52;;;5.40;;
28772;SDS011;15925;51.222;5.678;2023-04-06T09:42:47;11.43;;;4.32;;
28772;SDS011;15925;51.222;5.678;2023-04-06T09:45:19;13.68;;;4.50;;
28772;SDS011;15925;51.222;5.678;2023-04-06T09:47:46;14.35;;;4.35;;
28772;SDS011;15925;51.222;5.678;2023-04-06T09:50:12;15.43;;;5.57;;
28772;SDS011;15925;51.222;5.678;2023-04-06T09:52:49;14.00;;;4.55;;
28772;SDS011;15925;51.222;5.678;2023-04-06T09:55:22;11.43;;;4.07;;
28772;SDS011;15925;51.222;5.678;2023-04-06T09:57:58;11.85;;;5.03;;
28772;SDS011;15925;51.222;5.678;2023-04-06T10:00:30;13.70;;;5.10;;
28772;SDS011;15925;51.222;5.678;2023-04-06T10:05:57;12.52;;;4.45;;
28772;SDS011;15925;51.222;5.678;2023-04-06T10:08:27;9.43;;;4.40;;
28772;SDS011;15925;51.222;5.678;2023-04-06T10:10:54;12.25;;;4.32;;
28772;SDS011;15925;51.222;5.678;2023-04-06T10:13:20;11.77;;;4.90;;
28772;SDS011;15925;51.222;5.678;2023-04-06T10:15:48;8.52;;;3.45;;
28772;SDS011;15925;51.222;5.678;2023-04-06T10:18:15;11.50;;;5.28;;
28772;SDS011;15925;51.222;5.678;2023-04-06T10:26:16;9.77;;;3.67;;
28772;SDS011;15925;51.222;5.678;2023-04-06T10:28:46;7.03;;;2.95;;
28772;SDS011;15925;51.222;5.678;2023-04-06T10:31:13;6.07;;;3.25;;
28772;SDS011;15925;51.222;5.678;2023-04-06T10:33:39;11.13;;;4.13;;
28772;SDS011;15925;51.222;5.678;2023-04-06T10:38:38;7.88;;;3.45;;
28772;SDS011;15925;51.222;5.678;2023-04-06T10:43:34;7.68;;;2.67;;
28772;SDS011;15925;51.222;5.678;2023-04-06T10:46:05;8.27;;;2.72;;
28772;SDS011;15925;51.222;5.678;2023-04-06T10:48:42;5.90;;;2.92;;
28772;SDS011;15925;51.222;5.678;2023-04-06T10:51:15;8.65;;;2.30;;
28772;SDS011;15925;51.222;5.678;2023-04-06T10:53:44;5.45;;;2.10;;
28772;SDS011;15925;51.222;5.678;2023-04-06T10:56:12;5.97;;;1.95;;
28772;SDS011;15925;51.222;5.678;2023-04-06T10:58:46;7.93;;;1.92;;
28772;SDS011;15925;51.222;5.678;2023-04-06T11:01:16;4.60;;;1.73;;
28772;SDS011;15925;51.222;5.678;2023-04-06T11:03:46;6.80;;;1.67;;
28772;SDS011;15925;51.222;5.678;2023-04-06T11:06:23;2.95;;;1.67;;
28772;SDS011;15925;51.222;5.678;2023-04-06T11:08:51;3.10;;;2.08;;
28772;SDS011;15925;51.222;5.678;2023-04-06T11:11:18;4.63;;;2.25;;
28772;SDS011;15925;51.222;5.678;2023-04-06T11:13:46;4.18;;;2.28;;
28772;SDS011;15925;51.222;5.678;2023-04-06T11:16:24;4.88;;;2.58;;
28772;SDS011;15925;51.222;5.678;2023-04-06T11:21:17;3.97;;;2.17;;
28772;SDS011;15925;51.222;5.678;2023-04-06T11:23:44;4.75;;;2.10;;
28772;SDS011;15925;51.222;5.678;2023-04-06T11:26:13;10.20;;;3.30;;
28772;SDS011;15925;51.222;5.678;2023-04-06T11:28:42;5.10;;;2.38;;
28772;SDS011;15925;51.222;5.678;2023-04-06T11:31:09;6.18;;;2.28;;
28772;SDS011;15925;51.222;5.678;2023-04-06T11:33:36;25.13;;;2.72;;
28772;SDS011;15925;51.222;5.678;2023-04-06T11:36:06;3.72;;;2.17;;
28772;SDS011;15925;51.222;5.678;2023-04-06T11:38:32;6.00;;;2.33;;
28772;SDS011;15925;51.222;5.678;2023-04-06T11:40:58;9.38;;;2.65;;
28772;SDS011;15925;51.222;5.678;2023-04-06T11:43:28;8.77;;;3.28;;
28772;SDS011;15925;51.222;5.678;2023-04-06T11:46:02;7.82;;;3.00;;
28772;SDS011;15925;51.222;5.678;2023-04-06T11:48:28;4.75;;;2.83;;
28772;SDS011;15925;51.222;5.678;2023-04-06T11:50:58;5.25;;;2.05;;
28772;SDS011;15925;51.222;5.678;2023-04-06T11:53:29;6.65;;;2.53;;
28772;SDS011;15925;51.222;5.678;2023-04-06T11:55:56;8.23;;;3.00;;
28772;SDS011;15925;51.222;5.678;2023-04-06T11:58:22;8.00;;;2.50;;
28772;SDS011;15925;51.222;5.678;2023-04-06T12:00:47;10.53;;;3.43;;
28772;SDS011;15925;51.222;5.678;2023-04-06T12:03:13;8.23;;;3.20;;
28772;SDS011;15925;51.222;5.678;2023-04-06T12:05:39;10.77;;;2.83;;
28772;SDS011;15925;51.222;5.678;2023-04-06T12:08:05;7.90;;;3.42;;
28772;SDS011;15925;51.222;5.678;2023-04-06T12:10:31;4.88;;;2.38;;
28772;SDS011;15925;51.222;5.678;2023-04-06T12:12:57;8.73;;;3.37;;
28772;SDS011;15925;51.222;5.678;2023-04-06T12:15:23;5.63;;;3.23;;
28772;SDS011;15925;51.222;5.678;2023-04-06T12:17:49;12.00;;;3.25;;
28772;SDS011;15925;51.222;5.678;2023-04-06T12:20:15;6.07;;;2.70;;
28772;SDS011;15925;51.222;5.678;2023-04-06T12:22:41;6.07;;;2.85;;
28772;SDS011;15925;51.222;5.678;2023-04-06T12:25:07;12.83;;;3.80;;
28772;SDS011;15925;51.222;5.678;2023-04-06T12:27:33;5.90;;;2.58;;
28772;SDS011;15925;51.222;5.678;2023-04-06T12:29:59;9.70;;;3.60;;
28772;SDS011;15925;51.222;5.678;2023-04-06T12:32:25;8.10;;;3.80;;
28772;SDS011;15925;51.222;5.678;2023-04-06T12:34:51;9.83;;;3.80;;
28772;SDS011;15925;51.222;5.678;2023-04-06T12:37:17;10.90;;;3.70;;
28772;SDS011;15925;51.222;5.678;2023-04-06T12:39:43;4.60;;;2.67;;
28772;SDS011;15925;51.222;5.678;2023-04-06T12:42:10;13.25;;;3.35;;
28772;SDS011;15925;51.222;5.678;2023-04-06T12:44:37;6.57;;;3.25;;
28772;SDS011;15925;51.222;5.678;2023-04-06T12:47:03;9.27;;;3.05;;
28772;SDS011;15925;51.222;5.678;2023-04-06T12:49:30;10.30;;;3.92;;
28772;SDS011;15925;51.222;5.678;2023-04-06T12:54:22;8.48;;;3.78;;
28772;SDS011;15925;51.222;5.678;2023-04-06T12:56:48;8.20;;;3.90;;
28772;SDS011;15925;51.222;5.678;2023-04-06T12:59:14;8.23;;;4.37;;
28772;SDS011;15925;51.222;5.678;2023-04-06T13:01:40;10.18;;;3.17;;
28772;SDS011;15925;51.222;5.678;2023-04-06T13:04:05;9.00;;;3.10;;
28772;SDS011;15925;51.222;5.678;2023-04-06T13:06:31;6.97;;;3.38;;
28772;SDS011;15925;51.222;5.678;2023-04-06T13:08:57;7.80;;;3.63;;
28772;SDS011;15925;51.222;5.678;2023-04-06T13:11:23;6.17;;;3.00;;
28772;SDS011;15925;51.222;5.678;2023-04-06T13:13:51;10.73;;;2.90;;
28772;SDS011;15925;51.222;5.678;2023-04-06T13:16:17;9.18;;;3.15;;
28772;SDS011;15925;51.222;5.678;2023-04-06T13:18:44;7.07;;;2.75;;
28772;SDS011;15925;51.222;5.678;2023-04-06T13:21:12;9.57;;;3.53;;
28772;SDS011;15925;51.222;5.678;2023-04-06T13:23:41;7.60;;;2.72;;
28772;SDS011;15925;51.222;5.678;2023-04-06T13:26:07;9.63;;;3.33;;
28772;SDS011;15925;51.222;5.678;2023-04-06T13:28:33;9.83;;;3.17;;
28772;SDS011;15925;51.222;5.678;2023-04-06T13:31:00;7.78;;;3.78;;
28772;SDS011;15925;51.222;5.678;2023-04-06T13:33:27;11.40;;;3.25;;
28772;SDS011;15925;51.222;5.678;2023-04-06T13:35:54;8.82;;;3.70;;
28772;SDS011;15925;51.222;5.678;2023-04-06T13:38:20;4.70;;;2.53;;
28772;SDS011;15925;51.222;5.678;2023-04-06T13:40:46;13.30;;;3.97;;
28772;SDS011;15925;51.222;5.678;2023-04-06T13:43:12;9.27;;;3.37;;
28772;SDS011;15925;51.222;5.678;2023-04-06T13:45:38;16.40;;;4.57;;
28772;SDS011;15925;51.222;5.678;2023-04-06T13:48:04;7.43;;;3.58;;
28772;SDS011;15925;51.222;5.678;2023-04-06T13:50:30;8.73;;;3.05;;
28772;SDS011;15925;51.222;5.678;2023-04-06T13:52:57;9.18;;;3.03;;
28772;SDS011;15925;51.222;5.678;2023-04-06T13:55:22;7.57;;;3.40;;
28772;SDS011;15925;51.222;5.678;2023-04-06T13:57:49;5.43;;;2.63;;
28772;SDS011;15925;51.222;5.678;2023-04-06T14:00:16;12.80;;;2.38;;
28772;SDS011;15925;51.222;5.678;2023-04-06T14:02:42;11.27;;;2.22;;
28772;SDS011;15925;51.222;5.678;2023-04-06T14:05:08;6.13;;;2.03;;
28772;SDS011;15925;51.222;5.678;2023-04-06T14:10:00;12.15;;;3.20;;
28772;SDS011;15925;51.222;5.678;2023-04-06T14:12:26;5.43;;;2.20;;
28772;SDS011;15925;51.222;5.678;2023-04-06T14:14:52;7.47;;;2.45;;
28772;SDS011;15925;51.222;5.678;2023-04-06T14:17:18;6.07;;;2.42;;
28772;SDS011;15925;51.222;5.678;2023-04-06T14:19:44;6.07;;;2.33;;
28772;SDS011;15925;51.222;5.678;2023-04-06T14:22:10;5.97;;;2.87;;
28772;SDS011;15925;51.222;5.678;2023-04-06T14:24:36;6.57;;;2.93;;
28772;SDS011;15925;51.222;5.678;2023-04-06T14:29:28;8.43;;;3.40;;
28772;SDS011;15925;51.222;5.678;2023-04-06T14:31:55;9.80;;;2.97;;
28772;SDS011;15925;51.222;5.678;2023-04-06T14:34:27;1.90;;;1.70;;
28772;SDS011;15925;51.222;5.678;2023-04-06T14:36:53;3.70;;;1.75;;
28772;SDS011;15925;51.222;5.678;2023-04-06T14:39:19;2.90;;;2.05;;
28772;SDS011;15925;51.222;5.678;2023-04-06T14:41:45;6.88;;;2.90;;
28772;SDS011;15925;51.222;5.678;2023-04-06T14:44:12;7.30;;;2.90;;
28772;SDS011;15925;51.222;5.678;2023-04-06T14:46:41;6.40;;;2.47;;
28772;SDS011;15925;51.222;5.678;2023-04-06T14:49:07;6.10;;;2.83;;
28772;SDS011;15925;51.222;5.678;2023-04-06T14:51:33;4.20;;;2.37;;
28772;SDS011;15925;51.222;5.678;2023-04-06T14:56:28;4.07;;;1.92;;
28772;SDS011;15925;51.222;5.678;2023-04-06T14:58:56;12.45;;;2.63;;
28772;SDS011;15925;51.222;5.678;2023-04-06T15:01:27;7.28;;;2.55;;
28772;SDS011;15925;51.222;5.678;2023-04-06T15:03:52;3.85;;;2.22;;
28772;SDS011;15925;51.222;5.678;2023-04-06T15:06:19;4.07;;;2.07;;
28772;SDS011;15925;51.222;5.678;2023-04-06T15:08:46;5.40;;;2.15;;
28772;SDS011;15925;51.222;5.678;2023-04-06T15:11:12;4.45;;;2.38;;
28772;SDS011;15925;51.222;5.678;2023-04-06T15:13:38;5.93;;;2.42;;
28772;SDS011;15925;51.222;5.678;2023-04-06T15:16:05;3.92;;;2.03;;
28772;SDS011;15925;51.222;5.678;2023-04-06T15:18:31;10.70;;;3.47;;
28772;SDS011;15925;51.222;5.678;2023-04-06T15:20:58;7.07;;;2.65;;
28772;SDS011;15925;51.222;5.678;2023-04-06T15:23:24;3.80;;;3.10;;
28772;SDS011;15925;51.222;5.678;2023-04-06T15:25:50;4.93;;;2.47;;